BBC Polonia — V2EZ6 — position and weather

sailwx.info

Track history (hours):
 
Tides and Currents Weather Stations Pressure Air Temp Water Temp Dewpoint Dewpoint Depression Visibility Wind Speed Wind Dir Waves Ship Positions

BBC Polonia

Last reported at 2016-May-25 14:13 UTC. Time now 2016-May-25 15:02 UTC.
Position N 52°27' E 004°06'.

Length 123 m; draft 7.9 m.

Type: Cargo ship. MMSI: 305614000.

Date/timePositionNaut miles runAvg speedWind from/ knotsBaromVisibWave heightAir tempDewpointWater temp
2016-May-25 14:13N 52°27' E 004°06'0 0.0
2016-May-25 13:13N 52°27' E 004°06'0 0.0
2016-May-25 12:25N 52°27' E 004°06'0 0.0
2016-May-25 11:19N 52°27' E 004°06'0 0.0
2016-May-25 10:31N 52°27' E 004°06'0 0.0
2016-May-25 09:25N 52°27' E 004°07'0 0.1
2016-May-25 07:31N 52°27' E 004°07'0 0.0
2016-May-25 06:25N 52°27' E 004°07'0 0.0
2016-May-25 05:31N 52°27' E 004°07'0 0.0
2016-May-25 04:31N 52°27' E 004°07'0 0.1
2016-May-25 03:25N 52°27' E 004°07'0 0.1
2016-May-25 02:31N 52°27' E 004°07'0 0.0
2016-May-25 01:28N 52°27' E 004°07'0 0.0
2016-May-25 00:28N 52°27' E 004°06'0 0.0
2016-May-24 23:31N 52°27' E 004°06'0 0.0
2016-May-24 22:31N 52°27' E 004°06'0 0.0
2016-May-24 21:31N 52°27' E 004°07'0 0.0
2016-May-24 20:31N 52°27' E 004°07'0 0.0
2016-May-24 19:31N 52°27' E 004°07'0 0.2
2016-May-24 18:22N 52°27' E 004°07'0 0.0
2016-May-24 17:25N 52°27' E 004°07'0 0.0
2016-May-24 16:31N 52°27' E 004°07'0 0.1
2016-May-24 15:13N 52°27' E 004°07'0 0.1
2016-May-24 14:16N 52°27' E 004°07'0 0.0
2016-May-24 12:13N 52°27' E 004°06'0 0.0
2016-May-24 11:25N 52°27' E 004°06'0 0.0
2016-May-24 10:28N 52°27' E 004°06'0 0.0
2016-May-24 09:13N 52°27' E 004°07'0 0.0
2016-May-24 08:13N 52°27' E 004°07'0 0.0
2016-May-24 07:28N 52°27' E 004°07'0 0.1
2016-May-24 04:31N 52°27' E 004°07'0 0.1
2016-May-24 03:25N 52°27' E 004°07'0 0.2
2016-May-24 02:31N 52°27' E 004°07'0 0.1
2016-May-24 01:31N 52°27' E 004°07'0 0.0
2016-May-24 00:28N 52°27' E 004°06'3 3.6
2016-May-23 23:33N 52°25' E 004°03'1110.7
2016-May-23 22:33N 52°22' E 003°46'2410.0
2016-May-23 20:07N 52°09' E 003°12'5311.6
2016-May-23 15:33N 51°30' E 002°15'1312.8
2016-May-23 14:33N 51°18' E 002°07'1312.9
2016-May-23 13:33N 51°09' E 001°52'1514.8
2016-May-23 12:33N 50°59' E 001°35'6312.6
2016-May-23 07:34N 50°23' E 000°13'1312.5
2016-May-23 06:30N 50°21' W 000°07'1111.9
2016-May-23 05:33N 50°21' W 000°25'1111.0
2016-May-23 04:33N 50°22' W 000°42'20 9.8
2016-May-23 02:31N 50°25' W 001°13'47 6.7
2016-May-22 19:33N 50°35' W 002°25'18 7.6
2016-May-22 17:09N 50°21' W 002°42'712.5
2016-May-22 16:33N 50°18' W 002°53'1212.1
2016-May-22 15:33N 50°12' W 003°10'1111.4
2016-May-22 14:33N 50°08' W 003°26'1111.0
2016-May-22 13:33N 50°04' W 003°42'1111.3
2016-May-22 12:33N 50°01' W 003°59'1211.6
2016-May-22 11:33N 49°57' W 004°16'1211.7
2016-May-22 10:33N 49°53' W 004°33'1211.8
2016-May-22 09:32N 49°48' W 004°50'  
2016-May-18 08:06N 42°30' W 031°57'2012.9
2016-May-18 06:31N 42°20' W 032°20'  
Track history (hours):
 
Tides and Currents Weather Stations Pressure Air Temp Water Temp Dewpoint Dewpoint Depression Visibility Wind Speed Wind Dir Waves Ship Positions

BBC Polonia

Last reported at 2016-May-25 14:13 UTC. Time now 2016-May-25 15:02 UTC.
Position N 52°27' E 004°06'.

Length 123 m; draft 7.9 m.

Type: Cargo ship. MMSI: 305614000.

Date/timePositionNaut miles runAvg speedWind from/ knotsBaromVisibWave heightAir tempDewpointWater temp
2016-May-25 14:13N 52°27' E 004°06'0 0.0
2016-May-25 13:13N 52°27' E 004°06'0 0.0
2016-May-25 12:25N 52°27' E 004°06'0 0.0
2016-May-25 11:19N 52°27' E 004°06'0 0.0
2016-May-25 10:31N 52°27' E 004°06'0 0.0
2016-May-25 09:25N 52°27' E 004°07'0 0.1
2016-May-25 07:31N 52°27' E 004°07'0 0.0
2016-May-25 06:25N 52°27' E 004°07'0 0.0
2016-May-25 05:31N 52°27' E 004°07'0 0.0
2016-May-25 04:31N 52°27' E 004°07'0 0.1
2016-May-25 03:25N 52°27' E 004°07'0 0.1
2016-May-25 02:31N 52°27' E 004°07'0 0.0
2016-May-25 01:28N 52°27' E 004°07'0 0.0
2016-May-25 00:28N 52°27' E 004°06'0 0.0
2016-May-24 23:31N 52°27' E 004°06'0 0.0
2016-May-24 22:31N 52°27' E 004°06'0 0.0
2016-May-24 21:31N 52°27' E 004°07'0 0.0
2016-May-24 20:31N 52°27' E 004°07'0 0.0
2016-May-24 19:31N 52°27' E 004°07'0 0.2
2016-May-24 18:22N 52°27' E 004°07'0 0.0
2016-May-24 17:25N 52°27' E 004°07'0 0.0
2016-May-24 16:31N 52°27' E 004°07'0 0.1
2016-May-24 15:13N 52°27' E 004°07'0 0.1
2016-May-24 14:16N 52°27' E 004°07'0 0.0
2016-May-24 12:13N 52°27' E 004°06'0 0.0
2016-May-24 11:25N 52°27' E 004°06'0 0.0
2016-May-24 10:28N 52°27' E 004°06'0 0.0
2016-May-24 09:13N 52°27' E 004°07'0 0.0
2016-May-24 08:13N 52°27' E 004°07'0 0.0
2016-May-24 07:28N 52°27' E 004°07'0 0.1
2016-May-24 04:31N 52°27' E 004°07'0 0.1
2016-May-24 03:25N 52°27' E 004°07'0 0.2
2016-May-24 02:31N 52°27' E 004°07'0 0.1
2016-May-24 01:31N 52°27' E 004°07'0 0.0
2016-May-24 00:28N 52°27' E 004°06'3 3.6
2016-May-23 23:33N 52°25' E 004°03'1110.7
2016-May-23 22:33N 52°22' E 003°46'2410.0
2016-May-23 20:07N 52°09' E 003°12'5311.6
2016-May-23 15:33N 51°30' E 002°15'1312.8
2016-May-23 14:33N 51°18' E 002°07'1312.9
2016-May-23 13:33N 51°09' E 001°52'1514.8
2016-May-23 12:33N 50°59' E 001°35'6312.6
2016-May-23 07:34N 50°23' E 000°13'1312.5
2016-May-23 06:30N 50°21' W 000°07'1111.9
2016-May-23 05:33N 50°21' W 000°25'1111.0
2016-May-23 04:33N 50°22' W 000°42'20 9.8
2016-May-23 02:31N 50°25' W 001°13'47 6.7
2016-May-22 19:33N 50°35' W 002°25'18 7.6
2016-May-22 17:09N 50°21' W 002°42'712.5
2016-May-22 16:33N 50°18' W 002°53'1212.1
2016-May-22 15:33N 50°12' W 003°10'1111.4
2016-May-22 14:33N 50°08' W 003°26'1111.0
2016-May-22 13:33N 50°04' W 003°42'1111.3
2016-May-22 12:33N 50°01' W 003°59'1211.6
2016-May-22 11:33N 49°57' W 004°16'1211.7
2016-May-22 10:33N 49°53' W 004°33'1211.8
2016-May-22 09:32N 49°48' W 004°50'  
2016-May-18 08:06N 42°30' W 031°57'2012.9
2016-May-18 06:31N 42°20' W 032°20'  

Dump ship's entire track history